sensor_id;sensor_type;location;lat;lon;timestamp;temperature;humidity
40758;DHT22;26462;47.384;19.218;2022-12-07T00:01:29;2.00;99.90
40758;DHT22;26462;47.384;19.218;2022-12-07T00:03:59;2.00;99.90
40758;DHT22;26462;47.384;19.218;2022-12-07T00:06:33;2.00;99.90
40758;DHT22;26462;47.384;19.218;2022-12-07T00:09:01;2.00;99.90
40758;DHT22;26462;47.384;19.218;2022-12-07T00:11:28;2.00;99.90
40758;DHT22;26462;47.384;19.218;2022-12-07T00:13:58;2.00;99.90
40758;DHT22;26462;47.384;19.218;2022-12-07T00:16:28;2.00;99.90
40758;DHT22;26462;47.384;19.218;2022-12-07T00:18:57;1.90;99.90
40758;DHT22;26462;47.384;19.218;2022-12-07T00:21:27;1.90;99.90
40758;DHT22;26462;47.384;19.218;2022-12-07T00:23:55;1.90;99.90
40758;DHT22;26462;47.384;19.218;2022-12-07T00:26:23;1.90;99.90
40758;DHT22;26462;47.384;19.218;2022-12-07T00:28:56;1.80;99.90
40758;DHT22;26462;47.384;19.218;2022-12-07T00:31:25;1.80;99.90
40758;DHT22;26462;47.384;19.218;2022-12-07T00:33:53;1.80;99.90
40758;DHT22;26462;47.384;19.218;2022-12-07T00:36:22;1.80;99.90
40758;DHT22;26462;47.384;19.218;2022-12-07T00:38:54;1.80;99.90
40758;DHT22;26462;47.384;19.218;2022-12-07T00:41:23;1.80;99.90
40758;DHT22;26462;47.384;19.218;2022-12-07T00:43:51;1.70;99.90
40758;DHT22;26462;47.384;19.218;2022-12-07T00:46:19;1.70;99.90
40758;DHT22;26462;47.384;19.218;2022-12-07T00:48:48;1.70;99.90
40758;DHT22;26462;47.384;19.218;2022-12-07T00:51:17;1.70;99.90
40758;DHT22;26462;47.384;19.218;2022-12-07T00:53:44;1.70;99.90
40758;DHT22;26462;47.384;19.218;2022-12-07T00:56:18;1.60;99.90
40758;DHT22;26462;47.384;19.218;2022-12-07T00:58:53;1.60;99.90
40758;DHT22;26462;47.384;19.218;2022-12-07T01:01:21;1.60;99.90
40758;DHT22;26462;47.384;19.218;2022-12-07T01:03:49;1.60;99.90
40758;DHT22;26462;47.384;19.218;2022-12-07T01:06:20;1.60;99.90
40758;DHT22;26462;47.384;19.218;2022-12-07T01:08:48;1.70;99.90
40758;DHT22;26462;47.384;19.218;2022-12-07T01:11:18;1.60;99.90
40758;DHT22;26462;47.384;19.218;2022-12-07T01:13:46;1.70;99.90
40758;DHT22;26462;47.384;19.218;2022-12-07T01:16:15;1.70;99.90
40758;DHT22;26462;47.384;19.218;2022-12-07T01:18:46;1.70;99.90
40758;DHT22;26462;47.384;19.218;2022-12-07T01:21:23;1.70;99.90
40758;DHT22;26462;47.384;19.218;2022-12-07T01:23:51;1.70;99.90
40758;DHT22;26462;47.384;19.218;2022-12-07T01:26:21;1.70;99.90
40758;DHT22;26462;47.384;19.218;2022-12-07T01:28:49;1.60;99.90
40758;DHT22;26462;47.384;19.218;2022-12-07T01:31:19;1.70;99.90
40758;DHT22;26462;47.384;19.218;2022-12-07T01:33:52;1.70;99.90
40758;DHT22;26462;47.384;19.218;2022-12-07T01:36:20;1.70;99.90
40758;DHT22;26462;47.384;19.218;2022-12-07T01:38:49;1.70;99.90
40758;DHT22;26462;47.384;19.218;2022-12-07T01:41:20;1.60;99.90
40758;DHT22;26462;47.384;19.218;2022-12-07T01:44:25;1.60;99.90
40758;DHT22;26462;47.384;19.218;2022-12-07T01:46:57;1.60;99.90
40758;DHT22;26462;47.384;19.218;2022-12-07T01:49:33;1.60;99.90
40758;DHT22;26462;47.384;19.218;2022-12-07T01:52:28;1.60;99.90
40758;DHT22;26462;47.384;19.218;2022-12-07T01:55:03;1.60;99.90
40758;DHT22;26462;47.384;19.218;2022-12-07T01:57:34;1.60;99.90
40758;DHT22;26462;47.384;19.218;2022-12-07T02:00:04;1.60;99.90
40758;DHT22;26462;47.384;19.218;2022-12-07T02:02:49;1.50;99.90
40758;DHT22;26462;47.384;19.218;2022-12-07T02:05:18;1.50;99.90
40758;DHT22;26462;47.384;19.218;2022-12-07T02:07:47;1.50;99.90
40758;DHT22;26462;47.384;19.218;2022-12-07T02:10:18;1.50;99.90
40758;DHT22;26462;47.384;19.218;2022-12-07T02:12:51;1.50;99.90
40758;DHT22;26462;47.384;19.218;2022-12-07T02:15:22;1.60;99.90
40758;DHT22;26462;47.384;19.218;2022-12-07T02:18:09;1.50;99.90
40758;DHT22;26462;47.384;19.218;2022-12-07T02:31:36;1.60;99.90
40758;DHT22;26462;47.384;19.218;2022-12-07T02:34:30;1.50;99.90
40758;DHT22;26462;47.384;19.218;2022-12-07T02:37:00;1.60;99.90
40758;DHT22;26462;47.384;19.218;2022-12-07T02:39:40;1.60;99.90
40758;DHT22;26462;47.384;19.218;2022-12-07T02:42:25;1.60;99.90
40758;DHT22;26462;47.384;19.218;2022-12-07T02:44:54;1.70;99.90
40758;DHT22;26462;47.384;19.218;2022-12-07T02:47:21;1.70;99.90
40758;DHT22;26462;47.384;19.218;2022-12-07T02:49:51;1.70;99.90
40758;DHT22;26462;47.384;19.218;2022-12-07T02:52:18;1.70;99.90
40758;DHT22;26462;47.384;19.218;2022-12-07T02:54:46;1.70;99.90
40758;DHT22;26462;47.384;19.218;2022-12-07T03:00:10;1.80;99.90
40758;DHT22;26462;47.384;19.218;2022-12-07T03:13:33;1.80;99.90
40758;DHT22;26462;47.384;19.218;2022-12-07T03:16:27;1.80;99.90
40758;DHT22;26462;47.384;19.218;2022-12-07T03:19:06;1.80;99.90
40758;DHT22;26462;47.384;19.218;2022-12-07T03:21:39;1.80;99.90
40758;DHT22;26462;47.384;19.218;2022-12-07T03:24:15;1.90;99.90
40758;DHT22;26462;47.384;19.218;2022-12-07T03:26:51;1.90;99.90
40758;DHT22;26462;47.384;19.218;2022-12-07T03:29:33;1.90;99.90
40758;DHT22;26462;47.384;19.218;2022-12-07T03:32:29;1.90;99.90
40758;DHT22;26462;47.384;19.218;2022-12-07T03:37:42;1.80;99.90
40758;DHT22;26462;47.384;19.218;2022-12-07T03:40:43;1.90;99.90
40758;DHT22;26462;47.384;19.218;2022-12-07T03:43:11;1.90;99.90
40758;DHT22;26462;47.384;19.218;2022-12-07T03:45:44;1.90;99.90
40758;DHT22;26462;47.384;19.218;2022-12-07T03:51:00;1.90;99.90
40758;DHT22;26462;47.384;19.218;2022-12-07T03:56:33;1.90;99.90
40758;DHT22;26462;47.384;19.218;2022-12-07T03:59:01;1.90;99.90
40758;DHT22;26462;47.384;19.218;2022-12-07T04:01:28;1.90;99.90
40758;DHT22;26462;47.384;19.218;2022-12-07T04:03:55;1.90;99.90
40758;DHT22;26462;47.384;19.218;2022-12-07T04:06:22;2.00;99.90
40758;DHT22;26462;47.384;19.218;2022-12-07T04:08:49;2.00;99.90
40758;DHT22;26462;47.384;19.218;2022-12-07T04:11:16;2.00;99.90
40758;DHT22;26462;47.384;19.218;2022-12-07T04:13:43;2.00;99.90
40758;DHT22;26462;47.384;19.218;2022-12-07T04:16:29;2.00;99.90
40758;DHT22;26462;47.384;19.218;2022-12-07T04:18:56;2.00;99.90
40758;DHT22;26462;47.384;19.218;2022-12-07T04:21:23;2.00;99.90
40758;DHT22;26462;47.384;19.218;2022-12-07T04:23:50;2.00;99.90
40758;DHT22;26462;47.384;19.218;2022-12-07T04:26:17;2.00;99.90
40758;DHT22;26462;47.384;19.218;2022-12-07T04:28:44;2.10;99.90
40758;DHT22;26462;47.384;19.218;2022-12-07T04:31:11;2.10;99.90
40758;DHT22;26462;47.384;19.218;2022-12-07T04:33:38;2.10;99.90
40758;DHT22;26462;47.384;19.218;2022-12-07T04:36:06;2.10;99.90
40758;DHT22;26462;47.384;19.218;2022-12-07T04:38:33;2.10;99.90
40758;DHT22;26462;47.384;19.218;2022-12-07T04:41:05;2.10;99.90
40758;DHT22;26462;47.384;19.218;2022-12-07T04:43:33;2.10;99.90
40758;DHT22;26462;47.384;19.218;2022-12-07T04:46:00;2.10;99.90
40758;DHT22;26462;47.384;19.218;2022-12-07T04:48:28;2.10;99.90
40758;DHT22;26462;47.384;19.218;2022-12-07T04:50:55;2.20;99.90
40758;DHT22;26462;47.384;19.218;2022-12-07T04:53:22;2.20;99.90
40758;DHT22;26462;47.384;19.218;2022-12-07T04:55:49;2.20;99.90
40758;DHT22;26462;47.384;19.218;2022-12-07T04:58:16;2.20;99.90
40758;DHT22;26462;47.384;19.218;2022-12-07T05:00:44;2.20;99.90
40758;DHT22;26462;47.384;19.218;2022-12-07T05:03:11;2.20;99.90
40758;DHT22;26462;47.384;19.218;2022-12-07T05:05:40;2.20;99.90
40758;DHT22;26462;47.384;19.218;2022-12-07T05:08:08;2.20;99.90
40758;DHT22;26462;47.384;19.218;2022-12-07T05:10:35;2.20;99.90
40758;DHT22;26462;47.384;19.218;2022-12-07T05:13:02;2.20;99.90
40758;DHT22;26462;47.384;19.218;2022-12-07T05:15:29;2.20;99.90
40758;DHT22;26462;47.384;19.218;2022-12-07T05:17:56;2.20;99.90
40758;DHT22;26462;47.384;19.218;2022-12-07T05:20:23;2.20;99.90
40758;DHT22;26462;47.384;19.218;2022-12-07T05:22:50;2.20;99.90
40758;DHT22;26462;47.384;19.218;2022-12-07T05:25:17;2.30;99.90
40758;DHT22;26462;47.384;19.218;2022-12-07T05:27:44;2.20;99.90
40758;DHT22;26462;47.384;19.218;2022-12-07T05:30:12;2.30;99.90
40758;DHT22;26462;47.384;19.218;2022-12-07T05:32:39;2.30;99.90
40758;DHT22;26462;47.384;19.218;2022-12-07T05:35:06;2.30;99.90
40758;DHT22;26462;47.384;19.218;2022-12-07T05:37:33;2.30;99.90
40758;DHT22;26462;47.384;19.218;2022-12-07T05:40:00;2.30;99.90
40758;DHT22;26462;47.384;19.218;2022-12-07T05:42:28;2.30;99.90
40758;DHT22;26462;47.384;19.218;2022-12-07T05:44:55;2.30;99.90
40758;DHT22;26462;47.384;19.218;2022-12-07T05:47:22;2.30;99.90
40758;DHT22;26462;47.384;19.218;2022-12-07T05:49:49;2.30;99.90
40758;DHT22;26462;47.384;19.218;2022-12-07T05:52:16;2.30;99.90
40758;DHT22;26462;47.384;19.218;2022-12-07T05:54:43;2.30;99.90
40758;DHT22;26462;47.384;19.218;2022-12-07T05:57:11;2.40;99.90
40758;DHT22;26462;47.384;19.218;2022-12-07T05:59:38;2.30;99.90
40758;DHT22;26462;47.384;19.218;2022-12-07T06:02:11;2.40;99.90
40758;DHT22;26462;47.384;19.218;2022-12-07T06:04:41;2.40;99.90
40758;DHT22;26462;47.384;19.218;2022-12-07T06:07:09;2.40;99.90
40758;DHT22;26462;47.384;19.218;2022-12-07T06:09:36;2.40;99.90
40758;DHT22;26462;47.384;19.218;2022-12-07T06:12:04;2.40;99.90
40758;DHT22;26462;47.384;19.218;2022-12-07T06:14:51;2.40;99.90
40758;DHT22;26462;47.384;19.218;2022-12-07T06:17:18;2.40;99.90
40758;DHT22;26462;47.384;19.218;2022-12-07T06:19:45;2.40;99.90
40758;DHT22;26462;47.384;19.218;2022-12-07T06:22:12;2.40;99.90
40758;DHT22;26462;47.384;19.218;2022-12-07T06:24:40;2.30;99.90
40758;DHT22;26462;47.384;19.218;2022-12-07T06:27:07;2.30;99.90
40758;DHT22;26462;47.384;19.218;2022-12-07T06:29:34;2.30;99.90
40758;DHT22;26462;47.384;19.218;2022-12-07T06:32:02;2.30;99.90
40758;DHT22;26462;47.384;19.218;2022-12-07T06:34:29;2.30;99.90
40758;DHT22;26462;47.384;19.218;2022-12-07T06:36:56;2.30;99.90
40758;DHT22;26462;47.384;19.218;2022-12-07T06:39:25;2.30;99.90
40758;DHT22;26462;47.384;19.218;2022-12-07T06:41:53;2.40;99.90
40758;DHT22;26462;47.384;19.218;2022-12-07T06:44:21;2.40;99.90
40758;DHT22;26462;47.384;19.218;2022-12-07T06:46:49;2.40;99.90
40758;DHT22;26462;47.384;19.218;2022-12-07T06:49:16;2.40;99.90
40758;DHT22;26462;47.384;19.218;2022-12-07T06:51:44;2.40;99.90
40758;DHT22;26462;47.384;19.218;2022-12-07T06:54:12;2.40;99.90
40758;DHT22;26462;47.384;19.218;2022-12-07T06:56:39;2.40;99.90
40758;DHT22;26462;47.384;19.218;2022-12-07T06:59:07;2.40;99.90
40758;DHT22;26462;47.384;19.218;2022-12-07T07:01:35;2.40;99.90
40758;DHT22;26462;47.384;19.218;2022-12-07T07:04:03;2.40;99.90
40758;DHT22;26462;47.384;19.218;2022-12-07T07:06:30;2.50;99.90
40758;DHT22;26462;47.384;19.218;2022-12-07T07:08:57;2.50;99.90
40758;DHT22;26462;47.384;19.218;2022-12-07T07:56:10;2.60;99.90
40758;DHT22;26462;47.384;19.218;2022-12-07T16:28:57;4.00;99.90
40758;DHT22;26462;47.384;19.218;2022-12-07T16:31:27;4.00;99.90
40758;DHT22;26462;47.384;19.218;2022-12-07T16:33:57;3.90;99.90
40758;DHT22;26462;47.384;19.218;2022-12-07T16:36:24;3.90;99.90
40758;DHT22;26462;47.384;19.218;2022-12-07T16:39:13;3.80;99.90
40758;DHT22;26462;47.384;19.218;2022-12-07T16:41:40;3.80;99.90
40758;DHT22;26462;47.384;19.218;2022-12-07T16:44:11;3.70;99.90
40758;DHT22;26462;47.384;19.218;2022-12-07T16:46:39;3.70;99.90
40758;DHT22;26462;47.384;19.218;2022-12-07T16:49:11;3.70;99.90
40758;DHT22;26462;47.384;19.218;2022-12-07T16:51:39;3.60;99.90
40758;DHT22;26462;47.384;19.218;2022-12-07T16:54:12;3.60;99.90
40758;DHT22;26462;47.384;19.218;2022-12-07T16:56:39;3.60;99.90
40758;DHT22;26462;47.384;19.218;2022-12-07T16:59:07;3.50;99.90
40758;DHT22;26462;47.384;19.218;2022-12-07T17:01:35;3.50;99.90
40758;DHT22;26462;47.384;19.218;2022-12-07T17:04:03;3.50;99.90
40758;DHT22;26462;47.384;19.218;2022-12-07T17:06:31;3.40;99.90
40758;DHT22;26462;47.384;19.218;2022-12-07T17:08:58;3.40;99.90
40758;DHT22;26462;47.384;19.218;2022-12-07T17:11:28;3.30;99.90
40758;DHT22;26462;47.384;19.218;2022-12-07T17:13:57;3.30;99.90
40758;DHT22;26462;47.384;19.218;2022-12-07T17:16:43;3.20;99.90
40758;DHT22;26462;47.384;19.218;2022-12-07T17:19:14;3.20;99.90
40758;DHT22;26462;47.384;19.218;2022-12-07T17:21:42;3.20;99.90
40758;DHT22;26462;47.384;19.218;2022-12-07T17:24:13;3.10;99.90
40758;DHT22;26462;47.384;19.218;2022-12-07T17:26:42;3.10;99.90
40758;DHT22;26462;47.384;19.218;2022-12-07T17:29:12;3.00;99.90
40758;DHT22;26462;47.384;19.218;2022-12-07T17:31:39;3.00;99.90
40758;DHT22;26462;47.384;19.218;2022-12-07T17:34:14;3.00;99.90
40758;DHT22;26462;47.384;19.218;2022-12-07T17:36:45;2.90;99.90
40758;DHT22;26462;47.384;19.218;2022-12-07T17:39:15;2.90;99.90
40758;DHT22;26462;47.384;19.218;2022-12-07T17:41:43;2.90;99.90
40758;DHT22;26462;47.384;19.218;2022-12-07T17:44:49;2.80;99.90
40758;DHT22;26462;47.384;19.218;2022-12-07T17:47:16;2.80;99.90
40758;DHT22;26462;47.384;19.218;2022-12-07T17:49:44;2.70;99.90
40758;DHT22;26462;47.384;19.218;2022-12-07T17:52:15;2.70;99.90
40758;DHT22;26462;47.384;19.218;2022-12-07T17:55:02;2.70;99.90
40758;DHT22;26462;47.384;19.218;2022-12-07T17:57:30;2.60;99.90
40758;DHT22;26462;47.384;19.218;2022-12-07T17:59:58;2.60;99.90
40758;DHT22;26462;47.384;19.218;2022-12-07T18:02:26;2.60;99.90
40758;DHT22;26462;47.384;19.218;2022-12-07T18:04:53;2.50;99.90
40758;DHT22;26462;47.384;19.218;2022-12-07T18:07:21;2.50;99.90
40758;DHT22;26462;47.384;19.218;2022-12-07T18:09:48;2.50;99.90
40758;DHT22;26462;47.384;19.218;2022-12-07T18:12:15;2.50;99.90
40758;DHT22;26462;47.384;19.218;2022-12-07T18:14:42;2.40;99.90
40758;DHT22;26462;47.384;19.218;2022-12-07T18:17:10;2.40;99.90
40758;DHT22;26462;47.384;19.218;2022-12-07T18:19:39;2.40;99.90
40758;DHT22;26462;47.384;19.218;2022-12-07T18:22:06;2.40;99.90
40758;DHT22;26462;47.384;19.218;2022-12-07T18:24:34;2.30;99.90
40758;DHT22;26462;47.384;19.218;2022-12-07T18:27:04;2.30;99.90
40758;DHT22;26462;47.384;19.218;2022-12-07T18:29:32;2.30;99.90
40758;DHT22;26462;47.384;19.218;2022-12-07T18:32:00;2.30;99.90
40758;DHT22;26462;47.384;19.218;2022-12-07T18:34:29;2.30;99.90
40758;DHT22;26462;47.384;19.218;2022-12-07T18:36:58;2.20;99.90
40758;DHT22;26462;47.384;19.218;2022-12-07T18:39:25;2.20;99.90
40758;DHT22;26462;47.384;19.218;2022-12-07T18:42:00;2.20;99.90
40758;DHT22;26462;47.384;19.218;2022-12-07T18:44:31;2.10;99.90
40758;DHT22;26462;47.384;19.218;2022-12-07T18:46:59;2.10;99.90
40758;DHT22;26462;47.384;19.218;2022-12-07T18:49:28;2.00;99.90
40758;DHT22;26462;47.384;19.218;2022-12-07T18:51:58;2.00;99.90
40758;DHT22;26462;47.384;19.218;2022-12-07T18:54:28;2.00;99.90
40758;DHT22;26462;47.384;19.218;2022-12-07T18:57:12;2.00;99.90
40758;DHT22;26462;47.384;19.218;2022-12-07T18:59:40;1.90;99.90
40758;DHT22;26462;47.384;19.218;2022-12-07T19:02:14;1.90;99.90
40758;DHT22;26462;47.384;19.218;2022-12-07T19:04:45;1.90;99.90
40758;DHT22;26462;47.384;19.218;2022-12-07T19:07:13;1.80;99.90
40758;DHT22;26462;47.384;19.218;2022-12-07T19:09:41;1.80;99.90
40758;DHT22;26462;47.384;19.218;2022-12-07T19:12:13;1.80;99.90
40758;DHT22;26462;47.384;19.218;2022-12-07T19:14:42;1.80;99.90
40758;DHT22;26462;47.384;19.218;2022-12-07T19:17:12;1.80;99.90
40758;DHT22;26462;47.384;19.218;2022-12-07T19:19:44;1.70;99.90
40758;DHT22;26462;47.384;19.218;2022-12-07T19:22:20;1.70;99.90
40758;DHT22;26462;47.384;19.218;2022-12-07T19:24:49;1.70;99.90
40758;DHT22;26462;47.384;19.218;2022-12-07T19:27:19;1.70;99.90
40758;DHT22;26462;47.384;19.218;2022-12-07T19:29:47;1.70;99.90
40758;DHT22;26462;47.384;19.218;2022-12-07T19:32:17;1.60;99.90
40758;DHT22;26462;47.384;19.218;2022-12-07T19:34:46;1.60;99.90
40758;DHT22;26462;47.384;19.218;2022-12-07T19:37:14;1.60;99.90
40758;DHT22;26462;47.384;19.218;2022-12-07T19:39:42;1.60;99.90
40758;DHT22;26462;47.384;19.218;2022-12-07T19:42:11;1.50;99.90
40758;DHT22;26462;47.384;19.218;2022-12-07T19:44:39;1.50;99.90
40758;DHT22;26462;47.384;19.218;2022-12-07T19:47:12;1.50;99.90
40758;DHT22;26462;47.384;19.218;2022-12-07T19:49:44;1.50;99.90
40758;DHT22;26462;47.384;19.218;2022-12-07T19:52:15;1.50;99.90
40758;DHT22;26462;47.384;19.218;2022-12-07T19:54:43;1.50;99.90
40758;DHT22;26462;47.384;19.218;2022-12-07T19:57:10;1.40;99.90
40758;DHT22;26462;47.384;19.218;2022-12-07T19:59:43;1.40;99.90
40758;DHT22;26462;47.384;19.218;2022-12-07T20:02:13;1.30;99.90
40758;DHT22;26462;47.384;19.218;2022-12-07T20:04:41;1.40;99.90
40758;DHT22;26462;47.384;19.218;2022-12-07T20:07:09;1.30;99.90
40758;DHT22;26462;47.384;19.218;2022-12-07T20:09:39;1.30;99.90
40758;DHT22;26462;47.384;19.218;2022-12-07T20:12:09;1.30;99.90
40758;DHT22;26462;47.384;19.218;2022-12-07T20:14:59;1.30;99.90
40758;DHT22;26462;47.384;19.218;2022-12-07T20:17:28;1.20;99.90
40758;DHT22;26462;47.384;19.218;2022-12-07T20:19:55;1.20;99.90
40758;DHT22;26462;47.384;19.218;2022-12-07T20:22:23;1.20;99.90
40758;DHT22;26462;47.384;19.218;2022-12-07T20:24:52;1.20;99.90
40758;DHT22;26462;47.384;19.218;2022-12-07T20:27:20;1.20;99.90
40758;DHT22;26462;47.384;19.218;2022-12-07T20:29:49;1.20;99.90
40758;DHT22;26462;47.384;19.218;2022-12-07T20:32:17;1.20;99.90
40758;DHT22;26462;47.384;19.218;2022-12-07T20:34:45;1.20;99.90
40758;DHT22;26462;47.384;19.218;2022-12-07T20:37:13;1.10;99.90
40758;DHT22;26462;47.384;19.218;2022-12-07T20:39:43;1.10;99.90
40758;DHT22;26462;47.384;19.218;2022-12-07T20:42:12;1.10;99.90
40758;DHT22;26462;47.384;19.218;2022-12-07T20:44:59;1.10;99.90
40758;DHT22;26462;47.384;19.218;2022-12-07T20:47:30;1.10;99.90
40758;DHT22;26462;47.384;19.218;2022-12-07T20:50:00;1.00;99.90
40758;DHT22;26462;47.384;19.218;2022-12-07T20:52:29;1.00;99.90
40758;DHT22;26462;47.384;19.218;2022-12-07T20:54:57;1.00;99.90
40758;DHT22;26462;47.384;19.218;2022-12-07T20:57:25;1.00;99.90
40758;DHT22;26462;47.384;19.218;2022-12-07T20:59:54;1.00;99.90
40758;DHT22;26462;47.384;19.218;2022-12-07T21:02:21;0.90;99.90
40758;DHT22;26462;47.384;19.218;2022-12-07T21:04:49;0.90;99.90
40758;DHT22;26462;47.384;19.218;2022-12-07T21:07:16;0.90;99.90
40758;DHT22;26462;47.384;19.218;2022-12-07T21:09:47;0.90;99.90
40758;DHT22;26462;47.384;19.218;2022-12-07T21:12:14;0.90;99.90
40758;DHT22;26462;47.384;19.218;2022-12-07T21:14:42;0.90;99.90
40758;DHT22;26462;47.384;19.218;2022-12-07T21:17:10;0.90;99.90
40758;DHT22;26462;47.384;19.218;2022-12-07T21:19:37;0.90;99.90
40758;DHT22;26462;47.384;19.218;2022-12-07T21:22:05;0.80;99.90
40758;DHT22;26462;47.384;19.218;2022-12-07T21:24:32;0.80;99.90
40758;DHT22;26462;47.384;19.218;2022-12-07T21:26:59;0.80;99.90
40758;DHT22;26462;47.384;19.218;2022-12-07T21:29:26;0.80;99.90
40758;DHT22;26462;47.384;19.218;2022-12-07T21:32:10;0.80;99.90
40758;DHT22;26462;47.384;19.218;2022-12-07T21:34:38;0.80;99.90
40758;DHT22;26462;47.384;19.218;2022-12-07T21:37:05;0.80;99.90
40758;DHT22;26462;47.384;19.218;2022-12-07T21:39:32;0.80;99.90
40758;DHT22;26462;47.384;19.218;2022-12-07T21:41:59;0.80;99.90
40758;DHT22;26462;47.384;19.218;2022-12-07T21:44:26;0.80;99.90
40758;DHT22;26462;47.384;19.218;2022-12-07T21:46:53;0.80;99.90
40758;DHT22;26462;47.384;19.218;2022-12-07T21:49:20;0.80;99.90
40758;DHT22;26462;47.384;19.218;2022-12-07T21:51:47;0.80;99.90
40758;DHT22;26462;47.384;19.218;2022-12-07T21:54:14;0.80;99.90
40758;DHT22;26462;47.384;19.218;2022-12-07T21:56:42;0.80;99.90
40758;DHT22;26462;47.384;19.218;2022-12-07T21:59:13;0.80;99.90
40758;DHT22;26462;47.384;19.218;2022-12-07T22:01:42;0.80;99.90
40758;DHT22;26462;47.384;19.218;2022-12-07T22:04:19;0.70;99.90
40758;DHT22;26462;47.384;19.218;2022-12-07T22:06:47;0.70;99.90
40758;DHT22;26462;47.384;19.218;2022-12-07T22:09:15;0.70;99.90
40758;DHT22;26462;47.384;19.218;2022-12-07T22:11:45;0.70;99.90
40758;DHT22;26462;47.384;19.218;2022-12-07T22:14:12;0.70;99.90
40758;DHT22;26462;47.384;19.218;2022-12-07T22:17:14;0.70;99.90
40758;DHT22;26462;47.384;19.218;2022-12-07T22:19:41;0.70;99.90
40758;DHT22;26462;47.384;19.218;2022-12-07T22:22:13;0.70;99.90
40758;DHT22;26462;47.384;19.218;2022-12-07T22:24:43;0.70;99.90
40758;DHT22;26462;47.384;19.218;2022-12-07T22:27:10;0.60;99.90
40758;DHT22;26462;47.384;19.218;2022-12-07T22:29:43;0.60;99.90
40758;DHT22;26462;47.384;19.218;2022-12-07T22:32:11;0.60;99.90
40758;DHT22;26462;47.384;19.218;2022-12-07T22:35:00;0.60;99.90
40758;DHT22;26462;47.384;19.218;2022-12-07T22:37:28;0.60;99.90
40758;DHT22;26462;47.384;19.218;2022-12-07T22:39:55;0.60;99.90
40758;DHT22;26462;47.384;19.218;2022-12-07T22:42:22;0.60;99.90
40758;DHT22;26462;47.384;19.218;2022-12-07T22:44:49;0.50;99.90
40758;DHT22;26462;47.384;19.218;2022-12-07T22:47:19;0.50;99.90
40758;DHT22;26462;47.384;19.218;2022-12-07T22:49:47;1.10;99.90
40758;DHT22;26462;47.384;19.218;2022-12-07T22:52:14;0.50;99.90
40758;DHT22;26462;47.384;19.218;2022-12-07T22:54:41;0.50;99.90
40758;DHT22;26462;47.384;19.218;2022-12-07T22:57:08;0.60;99.90
40758;DHT22;26462;47.384;19.218;2022-12-07T22:59:36;0.50;99.90
40758;DHT22;26462;47.384;19.218;2022-12-07T23:02:03;0.50;99.90
40758;DHT22;26462;47.384;19.218;2022-12-07T23:04:30;0.50;99.90
40758;DHT22;26462;47.384;19.218;2022-12-07T23:06:57;0.50;99.90
40758;DHT22;26462;47.384;19.218;2022-12-07T23:09:25;0.50;99.90
40758;DHT22;26462;47.384;19.218;2022-12-07T23:11:52;0.50;99.90
40758;DHT22;26462;47.384;19.218;2022-12-07T23:14:37;0.50;99.90
40758;DHT22;26462;47.384;19.218;2022-12-07T23:17:04;0.50;99.90
40758;DHT22;26462;47.384;19.218;2022-12-07T23:19:32;0.50;99.90
40758;DHT22;26462;47.384;19.218;2022-12-07T23:21:59;0.40;99.90
40758;DHT22;26462;47.384;19.218;2022-12-07T23:24:26;0.40;99.90
40758;DHT22;26462;47.384;19.218;2022-12-07T23:26:53;0.40;99.90
40758;DHT22;26462;47.384;19.218;2022-12-07T23:29:20;0.40;99.90
40758;DHT22;26462;47.384;19.218;2022-12-07T23:31:48;0.40;99.90
40758;DHT22;26462;47.384;19.218;2022-12-07T23:34:16;0.40;99.90
40758;DHT22;26462;47.384;19.218;2022-12-07T23:36:43;0.40;99.90
40758;DHT22;26462;47.384;19.218;2022-12-07T23:39:11;0.40;99.90
40758;DHT22;26462;47.384;19.218;2022-12-07T23:41:38;0.40;99.90
40758;DHT22;26462;47.384;19.218;2022-12-07T23:44:05;0.40;99.90
40758;DHT22;26462;47.384;19.218;2022-12-07T23:46:33;0.40;99.90
40758;DHT22;26462;47.384;19.218;2022-12-07T23:49:01;0.40;99.90
40758;DHT22;26462;47.384;19.218;2022-12-07T23:51:30;0.40;99.90
40758;DHT22;26462;47.384;19.218;2022-12-07T23:53:58;0.40;99.90
40758;DHT22;26462;47.384;19.218;2022-12-07T23:56:28;0.40;99.90
40758;DHT22;26462;47.384;19.218;2022-12-07T23:58:57;0.40;99.90
